Time;durP1;ratioP1;P1;durP2;ratioP2;P2;SDS_P1;SDS_P2;PMS_P1;PMS_P2;Temp;Humidity;BMP_temperature;BMP_pressure;BME280_temperature;BME280_humidity;BME280_pressure;Samples;Min_cycle;Max_cycle;Signal;HPM_P1;HPM_P2
2021/07/12 00:00:21;;;;;;;34.58;26.95;;;18.90;92.00;;;;;;5009097;28;20134;-52
2021/07/12 00:02:48;;;;;;;32.45;27.80;;;18.90;92.20;;;;;;5014088;28;20104;-53
2021/07/12 00:05:15;;;;;;;35.30;28.95;;;18.90;92.20;;;;;;5012667;28;20038;-50
2021/07/12 00:07:41;;;;;;;35.58;29.23;;;18.90;92.30;;;;;;5011991;28;20038;-53
2021/07/12 00:10:09;;;;;;;33.75;28.48;;;18.90;92.30;;;;;;5007643;28;20050;-52
2021/07/12 00:12:35;;;;;;;36.70;29.48;;;18.90;92.40;;;;;;4998600;28;20046;-53
2021/07/12 00:15:04;;;;;;;34.88;29.13;;;18.90;92.40;;;;;;5010945;28;20159;-53
2021/07/12 00:17:30;;;;;;;37.00;28.58;;;18.90;92.50;;;;;;5002470;28;20048;-52
2021/07/12 00:19:56;;;;;;;35.75;29.33;;;18.90;92.50;;;;;;5008942;28;20041;-50
2021/07/12 00:22:22;;;;;;;35.53;30.55;;;18.90;92.60;;;;;;5008914;28;20038;-50
2021/07/12 00:24:48;;;;;;;39.17;29.67;;;18.90;92.70;;;;;;5015732;28;20104;-51
2021/07/12 00:27:13;;;;;;;34.15;29.92;;;18.90;92.80;;;;;;5014545;28;20125;-52
2021/07/12 00:29:39;;;;;;;39.53;30.23;;;18.90;92.80;;;;;;5015843;28;20295;-54
2021/07/12 00:32:05;;;;;;;38.53;31.23;;;18.90;92.90;;;;;;5015800;28;20554;-53
2021/07/12 00:34:32;;;;;;;39.58;30.50;;;18.90;92.90;;;;;;5013247;28;20116;-54
2021/07/12 00:36:58;;;;;;;39.20;29.63;;;18.90;93.00;;;;;;5016238;28;20513;-52
2021/07/12 00:39:24;;;;;;;39.72;30.77;;;18.80;93.10;;;;;;5013437;28;20546;-54
2021/07/12 00:41:50;;;;;;;36.20;29.75;;;18.80;93.20;;;;;;5015206;28;20038;-52
2021/07/12 00:44:16;;;;;;;39.08;31.42;;;18.80;93.30;;;;;;5011764;28;20133;-53
2021/07/12 00:46:42;;;;;;;41.05;30.80;;;18.80;93.20;;;;;;5015473;28;20580;-50
2021/07/12 00:49:08;;;;;;;37.72;30.13;;;18.80;93.20;;;;;;5014665;28;20064;-52
2021/07/12 00:51:34;;;;;;;39.92;31.75;;;18.70;93.20;;;;;;4993932;28;20077;-51
2021/07/12 00:54:00;;;;;;;38.10;31.25;;;18.70;93.30;;;;;;5012376;28;20135;-52
2021/07/12 00:56:27;;;;;;;39.22;30.13;;;18.70;93.30;;;;;;5013617;28;20065;-52
2021/07/12 00:58:53;;;;;;;36.83;31.23;;;18.70;93.30;;;;;;5012282;28;20073;-54
2021/07/12 01:01:19;;;;;;;39.38;30.10;;;18.70;93.40;;;;;;5012000;28;20034;-52
2021/07/12 01:03:45;;;;;;;41.90;32.63;;;18.70;93.40;;;;;;5015972;28;20112;-52
2021/07/12 01:06:11;;;;;;;35.65;29.67;;;18.70;93.40;;;;;;5014890;28;20125;-52
2021/07/12 01:08:37;;;;;;;39.33;30.55;;;18.70;93.40;;;;;;4981921;28;20061;-50
2021/07/12 01:11:28;;;;;;;35.85;30.00;;;18.70;93.50;;;;;;5016179;28;20049;-54
2021/07/12 01:14:04;;;;;;;34.58;27.80;;;18.70;93.50;;;;;;5006714;28;20120;-52
2021/07/12 01:16:51;;;;;;;37.08;31.00;;;18.70;93.60;;;;;;5013891;28;20046;-51
2021/07/12 01:19:39;;;;;;;37.20;29.38;;;18.70;93.60;;;;;;5023011;28;20046;-52
2021/07/12 01:22:34;;;;;;;35.78;29.08;;;18.70;93.90;;;;;;5008350;28;20037;-53
2021/07/12 01:25:34;;;;;;;35.15;29.38;;;18.60;93.80;;;;;;4989876;28;20074;-50
2021/07/12 01:28:16;;;;;;;37.65;29.88;;;18.60;94.10;;;;;;5008763;28;20038;-54
2021/07/12 01:30:47;;;;;;;42.00;32.85;;;18.60;93.90;;;;;;5018481;28;20057;-54
2021/07/12 01:33:25;;;;;;;39.97;32.53;;;18.60;93.90;;;;;;5009826;28;20038;-51
2021/07/12 01:36:22;;;;;;;39.20;32.40;;;18.60;93.90;;;;;;5018794;28;20102;-54
2021/07/12 01:38:58;;;;;;;41.38;32.08;;;18.50;94.00;;;;;;5005203;28;20042;-53
2021/07/12 01:41:55;;;;;;;40.08;31.33;;;18.50;94.00;;;;;;5018472;28;20045;-55
2021/07/12 01:44:58;;;;;;;41.40;31.60;;;18.50;94.10;;;;;;5018266;28;20029;-54
2021/07/12 01:47:45;;;;;;;40.42;31.35;;;18.50;94.20;;;;;;5007119;28;20038;-53
2021/07/12 01:50:27;;;;;;;40.65;32.88;;;18.50;94.20;;;;;;5012591;28;20049;-53
2021/07/12 01:53:03;;;;;;;39.85;33.13;;;18.50;94.10;;;;;;5013873;28;20092;-53
2021/07/12 01:55:43;;;;;;;41.50;33.05;;;18.40;94.10;;;;;;5002066;28;20050;-52
2021/07/12 01:58:25;;;;;;;41.08;32.45;;;18.50;94.20;;;;;;5017709;28;20046;-53
2021/07/12 02:00:52;;;;;;;38.50;32.28;;;18.40;94.10;;;;;;5017156;28;20030;-51
2021/07/12 02:03:21;;;;;;;41.45;32.72;;;18.40;94.20;;;;;;5019115;28;20049;-51
2021/07/12 02:05:48;;;;;;;43.53;33.38;;;18.40;94.40;;;;;;5016795;28;20124;-51
2021/07/12 02:08:21;;;;;;;41.03;33.10;;;18.50;94.30;;;;;;4992949;28;20042;-52
2021/07/12 02:10:50;;;;;;;35.40;28.98;;;18.40;94.20;;;;;;5016559;28;20161;-49
2021/07/12 02:13:17;;;;;;;41.10;32.20;;;18.30;94.30;;;;;;5008482;28;20038;-52
2021/07/12 02:15:50;;;;;;;40.47;31.17;;;18.40;94.40;;;;;;5016039;28;20038;-56
2021/07/12 02:18:18;;;;;;;42.47;32.25;;;18.30;94.30;;;;;;5013745;28;20034;-51
2021/07/12 02:20:46;;;;;;;44.33;31.98;;;18.30;94.30;;;;;;5018278;28;20041;-55
2021/07/12 02:23:13;;;;;;;42.92;32.03;;;18.30;94.30;;;;;;5013336;28;20038;-51
2021/07/12 02:25:41;;;;;;;43.65;32.50;;;18.30;94.30;;;;;;5009479;28;20116;-54
2021/07/12 02:28:11;;;;;;;36.22;29.30;;;18.30;94.30;;;;;;4994632;28;20048;-49
2021/07/12 02:30:39;;;;;;;36.83;29.35;;;18.30;94.40;;;;;;4988788;28;20265;-54
2021/07/12 02:33:06;;;;;;;40.67;32.00;;;18.30;94.40;;;;;;5005080;28;20038;-54
2021/07/12 02:35:32;;;;;;;40.58;31.10;;;18.40;94.50;;;;;;5013042;28;20042;-52
2021/07/12 02:37:59;;;;;;;41.55;31.98;;;18.40;94.40;;;;;;5016241;28;20406;-54
2021/07/12 02:40:26;;;;;;;42.75;33.33;;;18.40;94.40;;;;;;5018045;28;20049;-53
2021/07/12 02:42:55;;;;;;;40.65;32.05;;;18.40;94.40;;;;;;4987020;28;20385;-49
2021/07/12 02:45:24;;;;;;;44.30;33.80;;;18.30;94.40;;;;;;5014181;28;20557;-50
2021/07/12 02:47:51;;;;;;;45.35;33.38;;;18.30;94.40;;;;;;5014308;28;20120;-54
2021/07/12 02:50:18;;;;;;;47.03;34.08;;;18.30;94.40;;;;;;5015734;28;20041;-54
2021/07/12 02:52:59;;;;;;;42.38;34.08;;;18.30;94.50;;;;;;5010794;28;20046;-51
2021/07/12 02:55:25;;;;;;;43.83;33.40;;;18.20;94.50;;;;;;5012947;28;20057;-54
2021/07/12 02:57:51;;;;;;;43.63;33.25;;;18.20;94.50;;;;;;5011065;28;20471;-54
2021/07/12 03:00:18;;;;;;;47.47;36.35;;;18.20;94.60;;;;;;5010770;28;20491;-50
2021/07/12 03:02:45;;;;;;;42.78;33.13;;;18.20;94.60;;;;;;5013811;28;20042;-50
2021/07/12 03:05:11;;;;;;;43.67;33.85;;;18.20;94.60;;;;;;5008686;28;20045;-50
2021/07/12 03:08:04;;;;;;;47.17;36.00;;;18.20;94.70;;;;;;5014774;28;20060;-53
2021/07/12 03:10:31;;;;;;;45.85;34.58;;;18.20;94.80;;;;;;5007672;28;20042;-51
2021/07/12 03:13:02;;;;;;;46.17;34.83;;;18.20;94.70;;;;;;5018032;28;20088;-51
2021/07/12 03:15:44;;;;;;;44.75;34.95;;;18.20;94.70;;;;;;5007862;28;20103;-51
2021/07/12 03:18:31;;;;;;;47.75;34.45;;;18.20;94.90;;;;;;4999781;28;20520;-52
2021/07/12 03:21:03;;;;;;;43.97;34.42;;;18.20;94.90;;;;;;5010460;28;20058;-51
2021/07/12 03:23:40;;;;;;;;;;;18.20;94.80;;;;;;5012706;28;20060;-56
2021/07/12 03:26:08;;;;;;;45.13;32.78;;;18.10;95.00;;;;;;4998206;28;19926;-54
2021/07/12 03:28:36;;;;;;;41.38;31.08;;;18.10;94.80;;;;;;5009087;28;20038;-52
2021/07/12 03:31:03;;;;;;;39.90;30.35;;;18.10;94.80;;;;;;5015684;28;20053;-52
2021/07/12 03:33:31;;;;;;;44.00;32.92;;;18.10;94.80;;;;;;5016684;28;20148;-52
2021/07/12 03:35:59;;;;;;;49.67;34.95;;;18.10;94.80;;;;;;5018455;28;20104;-53
2021/07/12 03:38:25;;;;;;;47.08;35.53;;;18.10;94.90;;;;;;5010982;28;20045;-52
2021/07/12 03:40:51;;;;;;;46.28;35.20;;;18.10;95.00;;;;;;5017794;28;20038;-54
2021/07/12 03:43:17;;;;;;;46.35;35.65;;;18.10;95.00;;;;;;5020427;28;20042;-55
2021/07/12 03:45:52;;;;;;;46.92;35.30;;;18.10;95.00;;;;;;5011459;28;20065;-49
2021/07/12 03:48:18;;;;;;;48.92;35.20;;;18.10;95.10;;;;;;5018632;28;20042;-50
2021/07/12 03:50:44;;;;;;;47.33;36.47;;;18.10;95.10;;;;;;5014161;28;20044;-52
2021/07/12 03:53:10;;;;;;;47.22;34.70;;;18.10;95.10;;;;;;5012855;28;20045;-53
2021/07/12 03:55:36;;;;;;;53.33;36.20;;;18.10;95.10;;;;;;5008589;28;20057;-50
2021/07/12 03:58:03;;;;;;;46.42;36.58;;;18.10;95.10;;;;;;5010066;28;20042;-52
2021/07/12 04:00:30;;;;;;;47.72;35.67;;;18.10;95.10;;;;;;5021172;28;20034;-50
2021/07/12 04:02:56;;;;;;;47.45;34.70;;;18.10;95.00;;;;;;5015843;28;20037;-51
2021/07/12 04:05:27;;;;;;;47.67;35.97;;;18.10;95.10;;;;;;5006185;28;20038;-53
2021/07/12 04:07:57;;;;;;;45.25;35.25;;;18.20;95.20;;;;;;5022333;28;20121;-53
2021/07/12 04:10:23;;;;;;;46.30;35.30;;;18.30;95.10;;;;;;5006079;28;20070;-55
2021/07/12 04:12:49;;;;;;;49.15;36.45;;;18.30;95.00;;;;;;5008680;28;20065;-51
2021/07/12 04:15:16;;;;;;;51.03;36.80;;;18.20;95.00;;;;;;5001531;28;20039;-54
2021/07/12 04:17:44;;;;;;;49.28;35.83;;;18.20;95.10;;;;;;5012091;28;20101;-54
2021/07/12 04:20:12;;;;;;;45.47;34.78;;;18.20;95.20;;;;;;4995960;28;20069;-54
2021/07/12 04:22:38;;;;;;;53.15;36.42;;;18.20;95.30;;;;;;5006979;28;20040;-53
2021/07/12 04:25:06;;;;;;;42.58;32.67;;;18.20;95.20;;;;;;5011914;28;20046;-54
2021/07/12 04:27:33;;;;;;;44.80;34.55;;;18.10;95.20;;;;;;5015333;28;20411;-52
2021/07/12 04:29:59;;;;;;;51.42;36.33;;;18.10;95.30;;;;;;5015819;28;20045;-53
2021/07/12 04:32:26;;;;;;;46.33;33.92;;;18.10;95.30;;;;;;5014238;28;20029;-55
2021/07/12 04:34:52;;;;;;;50.08;37.08;;;18.10;95.30;;;;;;5017902;28;20108;-54
2021/07/12 04:37:18;;;;;;;51.65;37.22;;;18.20;95.40;;;;;;4999858;28;20042;-54
2021/07/12 04:39:45;;;;;;;52.88;36.60;;;18.20;95.30;;;;;;5012681;28;20037;-51
2021/07/12 04:42:10;;;;;;;45.20;35.00;;;18.20;95.40;;;;;;5010836;28;20046;-53
2021/07/12 04:44:37;;;;;;;44.53;35.35;;;18.20;95.30;;;;;;4999890;28;20041;-53
2021/07/12 04:47:03;;;;;;;45.72;35.55;;;18.20;95.30;;;;;;5008124;28;20037;-54
2021/07/12 04:49:28;;;;;;;42.92;33.22;;;18.30;95.30;;;;;;5014446;28;20475;-49
2021/07/12 04:51:54;;;;;;;47.67;36.35;;;18.30;95.30;;;;;;5017594;28;20528;-51
2021/07/12 04:54:21;;;;;;;44.42;35.17;;;18.40;95.30;;;;;;5009434;28;20177;-52
2021/07/12 04:56:47;;;;;;;46.40;36.25;;;18.40;95.10;;;;;;5019412;28;20034;-54
2021/07/12 04:59:13;;;;;;;45.58;33.83;;;18.50;95.10;;;;;;5015240;28;20530;-53
2021/07/12 05:01:40;;;;;;;45.38;34.05;;;18.50;95.00;;;;;;5013199;28;20048;-51
2021/07/12 05:04:06;;;;;;;43.88;33.97;;;18.40;95.10;;;;;;5021602;28;20210;-51
2021/07/12 05:06:33;;;;;;;44.05;32.45;;;18.50;95.10;;;;;;5017079;28;20048;-52
2021/07/12 05:08:58;;;;;;;45.30;33.55;;;18.50;95.10;;;;;;5019290;28;20172;-52
2021/07/12 05:11:26;;;;;;;45.90;34.15;;;18.50;95.10;;;;;;5019468;28;20081;-52
2021/07/12 05:13:52;;;;;;;43.70;34.08;;;18.60;95.10;;;;;;5020697;28;20132;-50
2021/07/12 05:16:19;;;;;;;42.28;31.30;;;18.70;95.10;;;;;;5027415;28;20061;-50
2021/07/12 05:18:45;;;;;;;43.90;32.28;;;18.70;95.10;;;;;;5027245;28;20053;-49
2021/07/12 05:21:11;;;;;;;42.05;32.60;;;18.70;95.10;;;;;;5017661;28;20181;-50
2021/07/12 05:23:37;;;;;;;44.75;34.05;;;18.70;95.10;;;;;;5017909;28;20050;-51
2021/07/12 05:26:03;;;;;;;45.78;34.60;;;18.80;95.20;;;;;;5008163;28;20053;-51
2021/07/12 05:28:29;;;;;;;44.10;34.63;;;18.80;95.10;;;;;;5007416;28;20060;-51
2021/07/12 05:30:55;;;;;;;44.08;36.85;;;18.80;95.10;;;;;;5015629;28;20037;-51
2021/07/12 05:33:21;;;;;;;46.30;36.10;;;18.80;95.10;;;;;;5016183;28;20041;-51
2021/07/12 05:35:47;;;;;;;41.85;33.63;;;18.90;95.10;;;;;;5014759;28;20106;-51
2021/07/12 05:38:15;;;;;;;40.92;33.05;;;18.90;95.10;;;;;;5014557;28;20077;-52
2021/07/12 05:40:41;;;;;;;42.47;33.60;;;18.90;95.10;;;;;;5014008;28;20046;-50
2021/07/12 05:43:08;;;;;;;45.85;34.33;;;18.90;95.10;;;;;;5032453;28;20108;-49
2021/07/12 05:45:34;;;;;;;44.70;34.00;;;18.90;95.10;;;;;;5017795;28;20049;-52
2021/07/12 05:48:00;;;;;;;44.17;34.47;;;19.00;95.20;;;;;;4993024;28;20038;-52
2021/07/12 05:50:25;;;;;;;43.20;35.00;;;19.00;95.00;;;;;;5024756;28;20084;-50
2021/07/12 05:52:51;;;;;;;42.50;33.88;;;19.00;95.00;;;;;;5015966;28;20033;-53
2021/07/12 05:55:17;;;;;;;42.85;33.20;;;19.00;95.10;;;;;;5013766;28;20195;-52
2021/07/12 05:57:43;;;;;;;43.30;32.80;;;19.00;95.00;;;;;;5021022;28;20510;-51
2021/07/12 06:00:11;;;;;;;42.08;33.03;;;19.00;95.00;;;;;;4999133;28;20046;-53
2021/07/12 06:02:36;;;;;;;41.50;31.60;;;19.00;95.10;;;;;;5015380;28;21920;-51
2021/07/12 06:05:05;;;;;;;41.60;33.13;;;19.00;95.10;;;;;;5017247;28;20176;-50
2021/07/12 06:07:34;;;;;;;39.17;31.75;;;19.10;94.90;;;;;;4996996;28;20075;-50
2021/07/12 06:10:01;;;;;;;41.75;33.00;;;19.10;95.00;;;;;;5012601;28;20072;-52
2021/07/12 06:12:27;;;;;;;38.03;31.52;;;19.10;94.90;;;;;;5018090;28;20096;-50
2021/07/12 06:14:52;;;;;;;43.58;33.78;;;19.10;95.00;;;;;;5016051;28;20038;-50
2021/07/12 06:17:18;;;;;;;43.90;32.03;;;19.10;95.00;;;;;;5007856;28;20066;-54
2021/07/12 06:19:44;;;;;;;40.70;32.78;;;19.20;95.00;;;;;;5017368;28;20042;-53
2021/07/12 06:22:09;;;;;;;43.50;33.83;;;19.20;95.00;;;;;;5005116;28;20041;-52
2021/07/12 06:24:36;;;;;;;38.33;31.40;;;19.20;94.90;;;;;;5016444;28;20052;-54
2021/07/12 06:27:03;;;;;;;37.40;32.00;;;19.30;94.90;;;;;;5011251;28;20045;-53
2021/07/12 06:29:30;;;;;;;38.67;30.85;;;19.30;94.80;;;;;;5008284;28;20058;-53
2021/07/12 06:31:56;;;;;;;39.80;31.02;;;19.30;94.90;;;;;;5022408;28;20120;-53
2021/07/12 06:34:23;;;;;;;37.53;31.50;;;19.30;94.90;;;;;;5010664;28;20085;-52
2021/07/12 06:36:49;;;;;;;39.65;30.50;;;19.40;94.70;;;;;;5018949;28;20058;-54
2021/07/12 06:39:15;;;;;;;40.10;33.03;;;19.40;94.80;;;;;;5022295;28;20034;-54
2021/07/12 06:41:41;;;;;;;40.35;32.22;;;19.50;94.60;;;;;;5021830;28;20069;-52
2021/07/12 06:44:06;;;;;;;41.40;31.70;;;19.50;94.80;;;;;;5013946;28;20073;-54
2021/07/12 06:46:32;;;;;;;39.63;31.45;;;19.60;94.50;;;;;;5030584;28;20034;-53
2021/07/12 06:48:58;;;;;;;38.40;30.50;;;19.60;94.60;;;;;;5015923;28;20037;-52
2021/07/12 06:51:26;;;;;;;35.78;30.05;;;19.60;94.60;;;;;;5027190;28;20053;-54
2021/07/12 06:53:52;;;;;;;39.20;30.92;;;19.70;94.50;;;;;;5028116;28;20410;-55
2021/07/12 06:56:17;;;;;;;35.42;28.50;;;19.80;94.40;;;;;;5021277;28;20056;-50
2021/07/12 06:58:43;;;;;;;35.65;29.05;;;19.90;94.20;;;;;;5026661;28;20041;-52
2021/07/12 07:01:09;;;;;;;33.47;29.08;;;20.00;93.80;;;;;;5024835;28;20041;-50
2021/07/12 07:03:35;;;;;;;36.85;29.70;;;20.00;93.80;;;;;;5023950;28;20042;-55
2021/07/12 07:06:01;;;;;;;33.63;29.63;;;19.90;94.00;;;;;;5011184;28;20046;-52
2021/07/12 07:08:28;;;;;;;31.25;27.75;;;20.00;94.00;;;;;;5017347;28;20518;-51
2021/07/12 07:10:53;;;;;;;33.30;27.83;;;20.10;93.70;;;;;;5022577;28;20042;-49
2021/07/12 07:13:24;;;;;;;36.08;29.30;;;20.10;93.60;;;;;;5025997;28;20057;-53
2021/07/12 07:15:50;;;;;;;36.35;29.45;;;20.10;93.60;;;;;;5017821;28;20054;-54
2021/07/12 07:18:17;;;;;;;34.08;29.52;;;20.20;93.70;;;;;;5000407;28;20486;-52
2021/07/12 07:20:43;;;;;;;34.35;30.17;;;20.30;93.30;;;;;;5016950;28;20068;-50
2021/07/12 07:23:09;;;;;;;36.85;30.02;;;20.30;93.20;;;;;;5010548;28;20046;-54
2021/07/12 07:25:35;;;;;;;35.50;31.63;;;20.40;93.30;;;;;;5019011;28;20033;-52
2021/07/12 07:28:02;;;;;;;38.92;31.65;;;20.40;93.10;;;;;;5005756;28;20038;-51
2021/07/12 07:30:30;;;;;;;38.25;31.05;;;20.40;93.10;;;;;;5017887;28;20544;-50
2021/07/12 07:32:56;;;;;;;34.60;30.88;;;20.40;93.10;;;;;;5007806;28;20054;-56
2021/07/12 07:35:22;;;;;;;35.92;31.08;;;20.50;93.20;;;;;;5004004;28;20045;-55
2021/07/12 07:37:48;;;;;;;33.28;28.75;;;20.60;93.20;;;;;;5001285;28;20084;-54
2021/07/12 07:40:16;;;;;;;34.92;27.63;;;20.60;93.00;;;;;;5015463;28;20038;-51
2021/07/12 07:42:42;;;;;;;32.30;28.55;;;20.60;92.80;;;;;;5020711;28;20042;-52
2021/07/12 07:45:09;;;;;;;33.75;28.13;;;20.70;92.90;;;;;;5014287;28;20045;-50
2021/07/12 07:47:35;;;;;;;31.08;26.67;;;20.70;92.70;;;;;;5016433;28;20072;-51
2021/07/12 07:50:02;;;;;;;31.20;27.75;;;20.70;92.50;;;;;;5014339;28;20046;-51
2021/07/12 07:52:29;;;;;;;36.38;29.77;;;20.80;92.30;;;;;;5013323;28;20125;-50
2021/07/12 07:54:55;;;;;;;34.47;28.83;;;20.80;92.20;;;;;;5014524;28;20061;-54
2021/07/12 07:57:21;;;;;;;31.40;27.52;;;20.80;92.20;;;;;;5015546;28;20041;-50
2021/07/12 07:59:47;;;;;;;35.28;28.73;;;20.90;92.40;;;;;;5022845;28;20622;-51
2021/07/12 08:02:12;;;;;;;32.08;28.42;;;21.00;92.10;;;;;;5013800;28;20042;-50
2021/07/12 08:04:38;;;;;;;32.33;28.45;;;21.00;92.00;;;;;;5021915;28;20057;-53
2021/07/12 08:07:06;;;;;;;29.38;25.75;;;21.10;91.90;;;;;;5008977;28;20476;-51
2021/07/12 08:09:32;;;;;;;31.25;26.35;;;21.20;91.80;;;;;;4995147;28;20141;-50
2021/07/12 08:11:58;;;;;;;28.88;25.75;;;21.20;91.40;;;;;;5006278;28;20038;-55
2021/07/12 08:14:24;;;;;;;26.45;23.27;;;21.30;91.30;;;;;;5020163;28;20467;-51
2021/07/12 08:16:50;;;;;;;24.75;21.13;;;21.30;91.20;;;;;;5008511;28;20111;-49
2021/07/12 08:19:16;;;;;;;22.02;19.63;;;21.30;90.90;;;;;;5013858;28;20130;-54
2021/07/12 08:21:44;;;;;;;20.88;18.42;;;21.30;90.70;;;;;;5018619;28;20054;-51
2021/07/12 08:24:10;;;;;;;25.38;22.67;;;21.40;90.60;;;;;;5007410;28;20046;-52
2021/07/12 08:26:38;;;;;;;26.75;23.05;;;21.40;90.40;;;;;;4985979;28;20072;-55
2021/07/12 08:29:04;;;;;;;24.48;21.50;;;21.40;90.30;;;;;;5013971;28;20038;-53
2021/07/12 08:31:31;;;;;;;25.85;23.08;;;21.50;90.40;;;;;;5013636;28;20048;-53
2021/07/12 08:33:58;;;;;;;23.23;20.80;;;21.60;90.10;;;;;;5013588;28;20054;-52
2021/07/12 08:36:26;;;;;;;22.80;19.88;;;21.60;89.50;;;;;;5005307;28;20371;-54
2021/07/12 08:38:52;;;;;;;20.75;18.50;;;21.80;85.40;;;;;;5022513;28;20042;-54
2021/07/12 08:41:18;;;;;;;23.67;19.95;;;21.80;86.80;;;;;;5002710;28;20465;-53
2021/07/12 08:43:44;;;;;;;22.33;19.13;;;21.90;87.50;;;;;;5000885;28;20555;-52
2021/07/12 08:46:10;;;;;;;22.50;17.67;;;22.00;87.20;;;;;;5009775;28;20030;-51
2021/07/12 08:48:36;;;;;;;25.48;19.63;;;21.90;87.20;;;;;;5002163;28;20050;-50
2021/07/12 08:51:02;;;;;;;23.70;20.27;;;22.00;87.50;;;;;;5002384;28;20034;-53
2021/07/12 08:53:28;;;;;;;20.85;18.70;;;22.20;87.30;;;;;;5006263;28;20042;-52
2021/07/12 08:55:53;;;;;;;19.83;17.80;;;22.30;86.10;;;;;;5007470;28;20046;-55
2021/07/12 08:58:23;;;;;;;20.45;17.23;;;22.40;86.70;;;;;;5013311;28;20034;-51
2021/07/12 09:01:06;;;;;;;19.80;17.70;;;22.50;86.10;;;;;;5009604;28;20034;-53
2021/07/12 09:03:39;;;;;;;18.90;16.98;;;22.60;84.00;;;;;;4990471;28;20050;-52
2021/07/12 09:06:14;;;;;;;20.17;16.85;;;22.60;85.10;;;;;;4980313;28;20042;-52
2021/07/12 09:08:53;;;;;;;19.65;16.63;;;22.60;84.70;;;;;;5002586;28;20068;-54
2021/07/12 09:11:25;;;;;;;18.00;16.05;;;22.70;82.90;;;;;;5012885;28;20038;-51
2021/07/12 09:13:55;;;;;;;17.77;15.00;;;22.70;82.70;;;;;;5027962;28;20486;-53
2021/07/12 09:16:32;;;;;;;16.00;14.27;;;22.70;79.70;;;;;;5012893;28;20046;-50
2021/07/12 09:19:06;;;;;;;15.63;13.40;;;22.70;81.50;;;;;;5004788;28;20410;-54
2021/07/12 09:21:37;;;;;;;16.17;13.45;;;22.80;80.40;;;;;;5012040;28;20070;-50
2021/07/12 09:24:18;;;;;;;13.57;12.07;;;22.90;80.40;;;;;;4988063;28;20046;-54
2021/07/12 09:26:48;;;;;;;14.27;12.07;;;23.00;81.10;;;;;;5009707;28;20070;-53
2021/07/12 09:29:39;;;;;;;12.05;10.63;;;23.10;78.30;;;;;;5013487;28;20060;-51
2021/07/12 09:32:11;;;;;;;13.20;11.57;;;23.20;77.70;;;;;;5023726;28;20046;-54
2021/07/12 09:34:37;;;;;;;11.77;10.45;;;23.10;75.30;;;;;;5015976;28;20041;-54
2021/07/12 09:37:04;;;;;;;13.35;11.68;;;23.00;74.60;;;;;;5008375;28;20034;-53
2021/07/12 09:39:34;;;;;;;12.10;10.80;;;22.90;76.20;;;;;;5002278;28;20054;-53
2021/07/12 09:42:01;;;;;;;14.85;10.30;;;22.80;76.50;;;;;;5013761;28;20049;-55
2021/07/12 09:44:29;;;;;;;11.18;9.93;;;22.70;76.30;;;;;;5024073;28;20726;-50
2021/07/12 09:47:01;;;;;;;11.27;10.02;;;22.70;75.90;;;;;;5023800;28;20105;-54
2021/07/12 09:49:27;;;;;;;11.93;10.45;;;22.60;76.00;;;;;;5012061;28;20045;-55
2021/07/12 09:51:56;;;;;;;13.15;10.18;;;22.60;75.30;;;;;;5011965;28;20124;-55
2021/07/12 09:54:35;;;;;;;11.20;9.77;;;22.50;74.10;;;;;;5023216;28;20034;-52
2021/07/12 09:57:03;;;;;;;11.63;9.38;;;22.40;75.40;;;;;;5019990;28;20033;-54
2021/07/12 09:59:29;;;;;;;12.02;9.68;;;22.30;76.80;;;;;;5018779;28;20042;-54
2021/07/12 10:01:56;;;;;;;10.57;9.48;;;22.30;76.60;;;;;;5012684;28;20065;-54
2021/07/12 10:04:23;;;;;;;10.40;8.98;;;22.20;76.10;;;;;;5011396;28;20044;-54
2021/07/12 10:06:52;;;;;;;10.73;9.63;;;22.20;76.90;;;;;;5011833;28;20050;-54
2021/07/12 10:09:22;;;;;;;10.93;9.18;;;22.30;76.10;;;;;;5007788;28;20130;-54
2021/07/12 10:11:54;;;;;;;13.70;9.68;;;22.20;77.60;;;;;;5019312;28;20045;-54
2021/07/12 10:14:23;;;;;;;12.38;10.18;;;22.20;78.20;;;;;;5011665;28;20117;-54
2021/07/12 10:16:50;;;;;;;10.55;9.45;;;22.30;77.70;;;;;;4998716;28;20380;-53
2021/07/12 10:19:16;;;;;;;13.35;11.52;;;22.40;78.30;;;;;;5007448;28;20069;-53
2021/07/12 10:21:48;;;;;;;13.65;12.10;;;22.60;78.50;;;;;;5006020;28;20092;-51
2021/07/12 10:24:15;;;;;;;16.80;14.43;;;22.70;78.90;;;;;;5011048;28;20049;-53
2021/07/12 10:26:49;;;;;;;16.30;13.95;;;22.90;76.80;;;;;;4979310;28;20049;-51
2021/07/12 10:29:42;;;;;;;17.88;14.27;;;23.00;75.00;;;;;;5005405;28;20073;-54
2021/07/12 10:32:13;;;;;;;15.43;13.82;;;23.10;73.70;;;;;;5008173;28;20132;-52
2021/07/12 10:34:44;;;;;;;17.35;12.30;;;23.20;74.00;;;;;;5014678;28;20426;-55
2021/07/12 10:37:30;;;;;;;13.82;12.43;;;23.20;74.10;;;;;;4998646;28;20045;-55
2021/07/12 10:40:13;;;;;;;12.27;10.98;;;23.40;72.40;;;;;;5002725;28;20045;-54
2021/07/12 10:42:41;;;;;;;12.68;11.15;;;23.50;69.50;;;;;;5012418;28;20045;-55
2021/07/12 10:45:11;;;;;;;11.70;9.65;;;23.50;71.30;;;;;;5016750;28;20459;-55
2021/07/12 10:48:06;;;;;;;12.55;9.73;;;23.50;71.10;;;;;;5011639;28;20046;-55
2021/07/12 10:50:38;;;;;;;8.13;7.32;;;23.70;68.60;;;;;;5012256;28;20049;-53
2021/07/12 10:53:26;;;;;;;8.30;7.38;;;23.90;70.10;;;;;;5019070;28;20048;-50
2021/07/12 10:55:58;;;;;;;9.93;8.23;;;23.90;66.90;;;;;;5032132;28;20513;-53
2021/07/12 10:58:28;;;;;;;9.38;7.38;;;23.80;66.40;;;;;;5001076;28;20077;-53
2021/07/12 11:00:56;;;;;;;7.15;6.45;;;23.70;68.10;;;;;;5013240;28;20402;-53
2021/07/12 11:03:42;;;;;;;8.18;6.38;;;23.70;66.00;;;;;;5012207;28;20038;-55
2021/07/12 11:06:20;;;;;;;7.72;6.75;;;23.60;66.70;;;;;;5013072;28;20069;-53
2021/07/12 11:08:56;;;;;;;7.65;6.68;;;23.60;65.90;;;;;;5001885;28;20042;-53
2021/07/12 11:11:22;;;;;;;8.20;6.93;;;23.50;67.30;;;;;;5013275;28;20510;-54
2021/07/12 11:13:54;;;;;;;8.50;6.97;;;23.30;68.80;;;;;;5013153;28;20112;-53
2021/07/12 11:16:22;;;;;;;9.00;6.63;;;23.30;69.10;;;;;;5008289;28;20407;-52
2021/07/12 11:18:50;;;;;;;7.80;6.65;;;23.20;70.50;;;;;;4994142;28;20569;-51
2021/07/12 11:21:28;;;;;;;10.82;6.85;;;23.30;70.40;;;;;;5014575;28;20106;-53
2021/07/12 11:23:57;;;;;;;9.98;7.22;;;23.30;70.20;;;;;;5013771;28;20058;-52
2021/07/12 11:26:23;;;;;;;7.45;6.55;;;23.40;69.80;;;;;;5015630;28;20046;-52
2021/07/12 11:28:59;;;;;;;8.98;7.20;;;23.40;70.50;;;;;;5011676;28;20038;-54
2021/07/12 11:31:44;;;;;;;8.93;7.18;;;23.60;69.10;;;;;;5005509;28;20520;-51
2021/07/12 11:34:13;;;;;;;7.65;6.85;;;23.70;68.90;;;;;;5012441;28;20132;-52
2021/07/12 11:36:39;;;;;;;8.93;7.32;;;23.70;68.90;;;;;;5025425;28;20041;-52
2021/07/12 11:39:05;;;;;;;7.32;6.60;;;23.70;69.80;;;;;;5013637;28;20110;-54
2021/07/12 11:41:32;;;;;;;7.80;7.00;;;23.80;70.40;;;;;;5012319;28;20038;-54
2021/07/12 11:44:07;;;;;;;9.35;7.65;;;24.00;68.20;;;;;;5012778;28;20033;-51
2021/07/12 11:46:33;;;;;;;8.65;7.70;;;24.20;66.60;;;;;;5012349;28;20042;-52
2021/07/12 11:49:15;;;;;;;8.27;6.95;;;24.30;63.20;;;;;;5013172;28;20049;-52
2021/07/12 11:51:41;;;;;;;;;;;24.30;67.80;;;;;;5013329;28;20053;-50
2021/07/12 11:54:19;;;;;;;10.13;7.93;;;24.40;64.90;;;;;;5023604;28;19917;-50
2021/07/12 11:57:10;;;;;;;8.48;7.57;;;24.40;67.90;;;;;;5014402;28;20120;-53
2021/07/12 11:59:37;;;;;;;;;;;24.50;65.40;;;;;;5007938;28;20065;-50
2021/07/12 12:02:07;;;;;;;8.35;7.38;;;24.40;65.50;;;;;;5026231;28;20373;-51
2021/07/12 12:04:46;;;;;;;9.38;8.05;;;24.40;67.40;;;;;;5014124;28;20411;-55
2021/07/12 12:07:45;;;;;;;9.68;7.65;;;24.30;67.60;;;;;;5027615;28;20417;-53
2021/07/12 12:10:23;;;;;;;10.00;9.00;;;24.40;66.40;;;;;;5019711;28;20064;-49
2021/07/12 12:13:00;;;;;;;8.88;7.72;;;24.40;66.50;;;;;;5015569;28;20383;-54
2021/07/12 12:15:30;;;;;;;9.48;8.45;;;24.40;67.00;;;;;;5018808;28;20049;-50
2021/07/12 12:18:10;;;;;;;11.20;9.45;;;24.40;67.20;;;;;;5001864;28;20052;-53
2021/07/12 12:20:47;;;;;;;9.77;8.68;;;24.40;65.70;;;;;;5020284;28;20045;-50
2021/07/12 12:23:18;;;;;;;9.40;8.38;;;24.20;66.50;;;;;;4995971;28;20233;-49
2021/07/12 12:25:59;;;;;;;9.63;8.52;;;24.10;68.60;;;;;;5011211;28;20054;-52
2021/07/12 12:28:44;;;;;;;11.65;9.07;;;24.00;68.20;;;;;;5017319;28;20116;-53
2021/07/12 12:31:28;;;;;;;10.70;9.60;;;24.00;69.90;;;;;;5021987;28;20053;-49
2021/07/12 12:33:58;;;;;;;11.02;9.52;;;23.90;68.80;;;;;;5026595;28;21091;-52
2021/07/12 12:36:30;;;;;;;13.43;10.88;;;23.80;69.60;;;;;;5022249;28;20513;-53
2021/07/12 12:39:05;;;;;;;11.25;9.80;;;24.00;68.10;;;;;;5018005;28;20414;-50
2021/07/12 12:41:33;;;;;;;12.20;10.18;;;23.90;68.40;;;;;;5020239;28;20121;-50
2021/07/12 12:43:59;;;;;;;12.15;9.38;;;23.90;68.60;;;;;;5022829;28;20121;-51